sensor_id;sensor_type;location;lat;lon;timestamp;P1;durP1;ratioP1;P2;durP2;ratioP2
23388;SDS011;11867;51.198;11.966;2023-01-06T00:00:35;16.13;;;5.35;;
23388;SDS011;11867;51.198;11.966;2023-01-06T00:01:38;19.02;;;5.78;;
23388;SDS011;11867;51.198;11.966;2023-01-06T00:02:41;12.48;;;4.85;;
23388;SDS011;11867;51.198;11.966;2023-01-06T00:03:46;12.30;;;5.20;;
23388;SDS011;11867;51.198;11.966;2023-01-06T00:04:51;12.27;;;5.10;;
23388;SDS011;11867;51.198;11.966;2023-01-06T00:05:55;13.77;;;5.30;;
23388;SDS011;11867;51.198;11.966;2023-01-06T00:06:59;12.65;;;5.30;;
23388;SDS011;11867;51.198;11.966;2023-01-06T00:08:00;17.42;;;5.20;;
23388;SDS011;11867;51.198;11.966;2023-01-06T00:09:03;16.85;;;5.38;;
23388;SDS011;11867;51.198;11.966;2023-01-06T00:10:06;14.43;;;5.65;;
23388;SDS011;11867;51.198;11.966;2023-01-06T00:11:10;12.63;;;4.95;;
23388;SDS011;11867;51.198;11.966;2023-01-06T00:12:14;19.10;;;5.80;;
23388;SDS011;11867;51.198;11.966;2023-01-06T00:13:16;16.05;;;5.05;;
23388;SDS011;11867;51.198;11.966;2023-01-06T00:14:18;11.50;;;4.82;;
23388;SDS011;11867;51.198;11.966;2023-01-06T00:15:20;19.92;;;6.22;;
23388;SDS011;11867;51.198;11.966;2023-01-06T00:16:22;15.23;;;5.45;;
23388;SDS011;11867;51.198;11.966;2023-01-06T00:17:25;12.73;;;5.05;;
23388;SDS011;11867;51.198;11.966;2023-01-06T00:18:26;15.43;;;5.65;;
23388;SDS011;11867;51.198;11.966;2023-01-06T00:19:29;9.85;;;4.65;;
23388;SDS011;11867;51.198;11.966;2023-01-06T00:20:32;17.02;;;5.30;;
23388;SDS011;11867;51.198;11.966;2023-01-06T00:21:34;15.98;;;4.75;;
23388;SDS011;11867;51.198;11.966;2023-01-06T00:22:39;13.88;;;4.93;;
23388;SDS011;11867;51.198;11.966;2023-01-06T00:23:42;15.48;;;5.38;;
23388;SDS011;11867;51.198;11.966;2023-01-06T00:24:45;13.15;;;5.28;;
23388;SDS011;11867;51.198;11.966;2023-01-06T00:25:49;12.90;;;4.55;;
23388;SDS011;11867;51.198;11.966;2023-01-06T00:26:52;11.40;;;5.07;;
23388;SDS011;11867;51.198;11.966;2023-01-06T00:27:54;13.15;;;5.05;;
23388;SDS011;11867;51.198;11.966;2023-01-06T00:28:57;15.02;;;5.00;;
23388;SDS011;11867;51.198;11.966;2023-01-06T00:29:59;13.85;;;4.75;;
23388;SDS011;11867;51.198;11.966;2023-01-06T00:31:04;12.13;;;4.97;;
23388;SDS011;11867;51.198;11.966;2023-01-06T00:32:08;15.55;;;5.35;;
23388;SDS011;11867;51.198;11.966;2023-01-06T00:33:09;14.15;;;4.50;;
23388;SDS011;11867;51.198;11.966;2023-01-06T00:34:12;13.70;;;4.82;;
23388;SDS011;11867;51.198;11.966;2023-01-06T00:35:14;12.77;;;4.93;;
23388;SDS011;11867;51.198;11.966;2023-01-06T00:36:18;16.17;;;4.88;;
23388;SDS011;11867;51.198;11.966;2023-01-06T00:37:21;15.13;;;5.05;;
23388;SDS011;11867;51.198;11.966;2023-01-06T00:38:24;13.25;;;5.30;;
23388;SDS011;11867;51.198;11.966;2023-01-06T00:39:25;11.27;;;4.90;;
23388;SDS011;11867;51.198;11.966;2023-01-06T00:40:28;21.17;;;5.50;;
23388;SDS011;11867;51.198;11.966;2023-01-06T00:41:29;15.70;;;5.18;;
23388;SDS011;11867;51.198;11.966;2023-01-06T00:42:50;13.32;;;5.05;;
23388;SDS011;11867;51.198;11.966;2023-01-06T00:43:52;15.93;;;5.10;;
23388;SDS011;11867;51.198;11.966;2023-01-06T00:44:54;10.77;;;5.00;;
23388;SDS011;11867;51.198;11.966;2023-01-06T00:45:56;14.27;;;5.45;;
23388;SDS011;11867;51.198;11.966;2023-01-06T00:46:58;17.33;;;5.18;;
23388;SDS011;11867;51.198;11.966;2023-01-06T00:48:01;16.92;;;4.85;;
23388;SDS011;11867;51.198;11.966;2023-01-06T00:49:03;14.32;;;4.80;;
23388;SDS011;11867;51.198;11.966;2023-01-06T00:50:07;12.90;;;4.35;;
23388;SDS011;11867;51.198;11.966;2023-01-06T00:51:10;12.70;;;5.05;;
23388;SDS011;11867;51.198;11.966;2023-01-06T00:52:13;16.65;;;5.55;;
23388;SDS011;11867;51.198;11.966;2023-01-06T00:53:16;11.60;;;4.47;;
23388;SDS011;11867;51.198;11.966;2023-01-06T00:54:18;11.77;;;4.85;;
23388;SDS011;11867;51.198;11.966;2023-01-06T00:55:21;12.52;;;4.93;;
23388;SDS011;11867;51.198;11.966;2023-01-06T00:56:22;14.70;;;4.72;;
23388;SDS011;11867;51.198;11.966;2023-01-06T00:57:25;13.43;;;5.28;;
23388;SDS011;11867;51.198;11.966;2023-01-06T00:58:28;11.02;;;4.60;;
23388;SDS011;11867;51.198;11.966;2023-01-06T00:59:31;10.95;;;4.57;;
23388;SDS011;11867;51.198;11.966;2023-01-06T01:00:32;13.38;;;4.63;;
23388;SDS011;11867;51.198;11.966;2023-01-06T01:01:35;12.75;;;4.93;;
23388;SDS011;11867;51.198;11.966;2023-01-06T01:02:37;15.70;;;5.20;;
23388;SDS011;11867;51.198;11.966;2023-01-06T01:03:40;12.82;;;4.50;;
23388;SDS011;11867;51.198;11.966;2023-01-06T01:04:42;15.10;;;4.72;;
23388;SDS011;11867;51.198;11.966;2023-01-06T01:05:44;11.55;;;4.60;;
23388;SDS011;11867;51.198;11.966;2023-01-06T01:06:46;13.65;;;4.47;;
23388;SDS011;11867;51.198;11.966;2023-01-06T01:07:50;14.70;;;5.25;;
23388;SDS011;11867;51.198;11.966;2023-01-06T01:08:53;12.50;;;4.70;;
23388;SDS011;11867;51.198;11.966;2023-01-06T01:09:56;12.95;;;4.75;;
23388;SDS011;11867;51.198;11.966;2023-01-06T01:11:01;13.00;;;4.75;;
23388;SDS011;11867;51.198;11.966;2023-01-06T01:12:04;12.45;;;4.18;;
23388;SDS011;11867;51.198;11.966;2023-01-06T01:13:13;14.18;;;3.90;;
23388;SDS011;11867;51.198;11.966;2023-01-06T01:14:15;11.82;;;3.65;;
23388;SDS011;11867;51.198;11.966;2023-01-06T01:15:19;8.55;;;3.67;;
23388;SDS011;11867;51.198;11.966;2023-01-06T01:16:22;11.02;;;3.85;;
23388;SDS011;11867;51.198;11.966;2023-01-06T01:17:24;9.68;;;3.47;;
23388;SDS011;11867;51.198;11.966;2023-01-06T01:18:29;11.80;;;4.20;;
23388;SDS011;11867;51.198;11.966;2023-01-06T01:19:30;9.88;;;3.28;;
23388;SDS011;11867;51.198;11.966;2023-01-06T01:20:33;9.27;;;3.72;;
23388;SDS011;11867;51.198;11.966;2023-01-06T01:21:36;12.75;;;4.32;;
23388;SDS011;11867;51.198;11.966;2023-01-06T01:22:38;13.40;;;3.50;;
23388;SDS011;11867;51.198;11.966;2023-01-06T01:23:41;11.57;;;3.30;;
23388;SDS011;11867;51.198;11.966;2023-01-06T01:24:43;12.98;;;3.72;;
23388;SDS011;11867;51.198;11.966;2023-01-06T01:25:46;10.77;;;3.10;;
23388;SDS011;11867;51.198;11.966;2023-01-06T01:26:47;13.50;;;3.33;;
23388;SDS011;11867;51.198;11.966;2023-01-06T01:27:50;12.27;;;3.50;;
23388;SDS011;11867;51.198;11.966;2023-01-06T01:28:53;11.85;;;3.10;;
23388;SDS011;11867;51.198;11.966;2023-01-06T01:29:54;10.13;;;3.38;;
23388;SDS011;11867;51.198;11.966;2023-01-06T01:30:57;11.07;;;3.00;;
23388;SDS011;11867;51.198;11.966;2023-01-06T01:31:59;8.82;;;3.00;;
23388;SDS011;11867;51.198;11.966;2023-01-06T01:33:02;9.32;;;4.18;;
23388;SDS011;11867;51.198;11.966;2023-01-06T01:34:03;11.38;;;3.25;;
23388;SDS011;11867;51.198;11.966;2023-01-06T01:35:06;11.27;;;3.30;;
23388;SDS011;11867;51.198;11.966;2023-01-06T01:36:10;13.77;;;3.88;;
23388;SDS011;11867;51.198;11.966;2023-01-06T01:37:13;9.65;;;3.00;;
23388;SDS011;11867;51.198;11.966;2023-01-06T01:38:16;10.75;;;2.88;;
23388;SDS011;11867;51.198;11.966;2023-01-06T01:39:21;8.27;;;2.78;;
23388;SDS011;11867;51.198;11.966;2023-01-06T01:40:24;11.48;;;3.25;;
23388;SDS011;11867;51.198;11.966;2023-01-06T01:41:26;10.68;;;3.17;;
23388;SDS011;11867;51.198;11.966;2023-01-06T01:42:30;8.90;;;2.55;;
23388;SDS011;11867;51.198;11.966;2023-01-06T01:43:42;8.75;;;3.38;;
23388;SDS011;11867;51.198;11.966;2023-01-06T01:44:51;9.98;;;2.90;;
23388;SDS011;11867;51.198;11.966;2023-01-06T01:46:02;7.82;;;2.83;;
23388;SDS011;11867;51.198;11.966;2023-01-06T01:47:03;8.68;;;2.55;;
23388;SDS011;11867;51.198;11.966;2023-01-06T01:48:08;8.55;;;3.15;;
23388;SDS011;11867;51.198;11.966;2023-01-06T01:49:18;8.30;;;2.10;;
23388;SDS011;11867;51.198;11.966;2023-01-06T01:50:26;10.60;;;3.03;;
23388;SDS011;11867;51.198;11.966;2023-01-06T01:51:33;12.40;;;2.78;;
23388;SDS011;11867;51.198;11.966;2023-01-06T01:52:39;10.20;;;2.88;;
23388;SDS011;11867;51.198;11.966;2023-01-06T01:53:44;8.55;;;2.67;;
23388;SDS011;11867;51.198;11.966;2023-01-06T01:54:50;5.78;;;2.60;;
23388;SDS011;11867;51.198;11.966;2023-01-06T01:55:55;8.30;;;2.85;;
23388;SDS011;11867;51.198;11.966;2023-01-06T01:56:59;10.52;;;3.33;;
23388;SDS011;11867;51.198;11.966;2023-01-06T01:58:05;9.63;;;2.67;;
23388;SDS011;11867;51.198;11.966;2023-01-06T01:59:12;12.30;;;3.05;;
23388;SDS011;11867;51.198;11.966;2023-01-06T02:00:16;7.53;;;2.35;;
23388;SDS011;11867;51.198;11.966;2023-01-06T02:01:20;8.20;;;2.95;;
23388;SDS011;11867;51.198;11.966;2023-01-06T02:02:21;8.55;;;3.10;;
23388;SDS011;11867;51.198;11.966;2023-01-06T02:03:25;8.40;;;2.70;;
23388;SDS011;11867;51.198;11.966;2023-01-06T02:04:28;11.05;;;2.85;;
23388;SDS011;11867;51.198;11.966;2023-01-06T02:05:35;10.77;;;2.85;;
23388;SDS011;11867;51.198;11.966;2023-01-06T02:06:40;10.35;;;2.88;;
23388;SDS011;11867;51.198;11.966;2023-01-06T02:07:42;8.32;;;3.00;;
23388;SDS011;11867;51.198;11.966;2023-01-06T02:08:47;13.10;;;3.08;;
23388;SDS011;11867;51.198;11.966;2023-01-06T02:09:58;12.18;;;3.38;;
23388;SDS011;11867;51.198;11.966;2023-01-06T02:11:07;9.02;;;3.55;;
23388;SDS011;11867;51.198;11.966;2023-01-06T02:12:10;6.63;;;2.92;;
23388;SDS011;11867;51.198;11.966;2023-01-06T02:13:12;9.10;;;3.50;;
23388;SDS011;11867;51.198;11.966;2023-01-06T02:14:16;8.10;;;2.70;;
23388;SDS011;11867;51.198;11.966;2023-01-06T02:15:20;11.18;;;3.13;;
23388;SDS011;11867;51.198;11.966;2023-01-06T02:16:27;10.98;;;3.03;;
23388;SDS011;11867;51.198;11.966;2023-01-06T02:17:38;9.02;;;2.70;;
23388;SDS011;11867;51.198;11.966;2023-01-06T02:18:52;9.93;;;2.92;;
23388;SDS011;11867;51.198;11.966;2023-01-06T02:20:18;8.75;;;2.67;;
23388;SDS011;11867;51.198;11.966;2023-01-06T02:22:50;12.27;;;2.97;;
23388;SDS011;11867;51.198;11.966;2023-01-06T02:24:31;8.25;;;2.90;;
23388;SDS011;11867;51.198;11.966;2023-01-06T02:32:32;8.05;;;2.60;;
23388;SDS011;11867;51.198;11.966;2023-01-06T02:33:42;8.82;;;2.90;;
23388;SDS011;11867;51.198;11.966;2023-01-06T02:34:50;9.15;;;3.15;;
23388;SDS011;11867;51.198;11.966;2023-01-06T02:36:05;7.05;;;2.83;;
23388;SDS011;11867;51.198;11.966;2023-01-06T02:37:21;10.35;;;3.17;;
23388;SDS011;11867;51.198;11.966;2023-01-06T02:38:36;7.97;;;3.22;;
23388;SDS011;11867;51.198;11.966;2023-01-06T02:39:51;7.22;;;2.92;;
23388;SDS011;11867;51.198;11.966;2023-01-06T02:41:12;6.60;;;2.50;;
23388;SDS011;11867;51.198;11.966;2023-01-06T02:42:25;8.35;;;2.53;;
23388;SDS011;11867;51.198;11.966;2023-01-06T02:43:37;9.73;;;2.60;;
23388;SDS011;11867;51.198;11.966;2023-01-06T02:44:48;11.27;;;2.60;;
23388;SDS011;11867;51.198;11.966;2023-01-06T02:46:06;6.18;;;2.70;;
23388;SDS011;11867;51.198;11.966;2023-01-06T02:47:17;6.05;;;1.95;;
23388;SDS011;11867;51.198;11.966;2023-01-06T02:48:25;8.15;;;2.40;;
23388;SDS011;11867;51.198;11.966;2023-01-06T02:49:35;6.28;;;2.10;;
23388;SDS011;11867;51.198;11.966;2023-01-06T02:50:49;8.63;;;2.60;;
23388;SDS011;11867;51.198;11.966;2023-01-06T02:51:57;6.78;;;1.73;;
23388;SDS011;11867;51.198;11.966;2023-01-06T02:53:05;7.53;;;2.30;;
23388;SDS011;11867;51.198;11.966;2023-01-06T02:54:13;7.60;;;2.30;;
23388;SDS011;11867;51.198;11.966;2023-01-06T02:55:22;6.50;;;2.15;;
23388;SDS011;11867;51.198;11.966;2023-01-06T02:56:31;7.15;;;2.05;;
23388;SDS011;11867;51.198;11.966;2023-01-06T02:57:39;6.72;;;2.05;;
23388;SDS011;11867;51.198;11.966;2023-01-06T02:58:47;5.40;;;1.98;;
23388;SDS011;11867;51.198;11.966;2023-01-06T02:59:55;7.05;;;2.08;;
23388;SDS011;11867;51.198;11.966;2023-01-06T03:01:02;4.43;;;2.05;;
23388;SDS011;11867;51.198;11.966;2023-01-06T03:02:08;8.13;;;2.50;;
23388;SDS011;11867;51.198;11.966;2023-01-06T03:03:12;5.78;;;2.13;;
23388;SDS011;11867;51.198;11.966;2023-01-06T03:04:19;5.13;;;1.80;;
23388;SDS011;11867;51.198;11.966;2023-01-06T03:05:25;6.80;;;2.15;;
23388;SDS011;11867;51.198;11.966;2023-01-06T03:06:29;4.55;;;2.00;;
23388;SDS011;11867;51.198;11.966;2023-01-06T03:07:34;3.92;;;1.90;;
23388;SDS011;11867;51.198;11.966;2023-01-06T03:08:38;7.63;;;2.10;;
23388;SDS011;11867;51.198;11.966;2023-01-06T03:09:41;6.13;;;2.15;;
23388;SDS011;11867;51.198;11.966;2023-01-06T03:10:44;5.95;;;2.05;;
23388;SDS011;11867;51.198;11.966;2023-01-06T03:11:48;6.88;;;1.80;;
23388;SDS011;11867;51.198;11.966;2023-01-06T03:12:52;8.63;;;2.30;;
23388;SDS011;11867;51.198;11.966;2023-01-06T03:14:01;5.28;;;1.70;;
23388;SDS011;11867;51.198;11.966;2023-01-06T03:15:07;8.43;;;2.22;;
23388;SDS011;11867;51.198;11.966;2023-01-06T03:16:10;5.18;;;2.15;;
23388;SDS011;11867;51.198;11.966;2023-01-06T03:17:13;5.30;;;1.70;;
23388;SDS011;11867;51.198;11.966;2023-01-06T03:18:15;4.55;;;1.83;;
23388;SDS011;11867;51.198;11.966;2023-01-06T03:19:19;4.55;;;1.80;;
23388;SDS011;11867;51.198;11.966;2023-01-06T03:20:21;5.70;;;1.88;;
23388;SDS011;11867;51.198;11.966;2023-01-06T03:21:24;5.50;;;1.95;;
23388;SDS011;11867;51.198;11.966;2023-01-06T03:22:30;4.97;;;1.60;;
23388;SDS011;11867;51.198;11.966;2023-01-06T03:23:39;4.88;;;1.83;;
23388;SDS011;11867;51.198;11.966;2023-01-06T03:24:42;7.95;;;2.15;;
23388;SDS011;11867;51.198;11.966;2023-01-06T03:25:45;7.32;;;1.85;;
23388;SDS011;11867;51.198;11.966;2023-01-06T03:26:48;5.25;;;1.90;;
23388;SDS011;11867;51.198;11.966;2023-01-06T03:27:52;8.15;;;2.50;;
23388;SDS011;11867;51.198;11.966;2023-01-06T03:28:54;2.97;;;1.70;;
23388;SDS011;11867;51.198;11.966;2023-01-06T03:29:56;6.75;;;2.17;;
23388;SDS011;11867;51.198;11.966;2023-01-06T03:31:00;6.03;;;2.30;;
23388;SDS011;11867;51.198;11.966;2023-01-06T03:32:10;7.63;;;2.13;;
23388;SDS011;11867;51.198;11.966;2023-01-06T03:33:20;4.20;;;1.33;;
23388;SDS011;11867;51.198;11.966;2023-01-06T03:34:35;6.85;;;2.00;;
23388;SDS011;11867;51.198;11.966;2023-01-06T03:35:52;7.65;;;2.25;;
23388;SDS011;11867;51.198;11.966;2023-01-06T03:37:01;5.57;;;1.60;;
23388;SDS011;11867;51.198;11.966;2023-01-06T03:38:12;8.52;;;1.83;;
23388;SDS011;11867;51.198;11.966;2023-01-06T03:39:23;7.97;;;2.30;;
23388;SDS011;11867;51.198;11.966;2023-01-06T03:40:33;5.35;;;1.70;;
23388;SDS011;11867;51.198;11.966;2023-01-06T03:41:41;7.38;;;2.40;;
23388;SDS011;11867;51.198;11.966;2023-01-06T03:43:07;4.80;;;1.90;;
23388;SDS011;11867;51.198;11.966;2023-01-06T03:44:12;5.57;;;1.70;;
23388;SDS011;11867;51.198;11.966;2023-01-06T03:45:30;5.40;;;1.75;;
23388;SDS011;11867;51.198;11.966;2023-01-06T03:46:40;5.30;;;2.10;;
23388;SDS011;11867;51.198;11.966;2023-01-06T03:47:52;5.03;;;1.85;;
23388;SDS011;11867;51.198;11.966;2023-01-06T03:49:02;6.57;;;1.92;;
23388;SDS011;11867;51.198;11.966;2023-01-06T03:50:11;5.40;;;2.08;;
23388;SDS011;11867;51.198;11.966;2023-01-06T03:51:20;6.40;;;1.95;;
23388;SDS011;11867;51.198;11.966;2023-01-06T03:52:32;6.80;;;2.15;;
23388;SDS011;11867;51.198;11.966;2023-01-06T03:53:41;7.50;;;2.00;;
23388;SDS011;11867;51.198;11.966;2023-01-06T03:54:50;5.10;;;2.00;;
23388;SDS011;11867;51.198;11.966;2023-01-06T03:55:59;5.90;;;1.88;;
23388;SDS011;11867;51.198;11.966;2023-01-06T03:57:11;6.57;;;1.90;;
23388;SDS011;11867;51.198;11.966;2023-01-06T03:58:15;5.80;;;1.80;;
23388;SDS011;11867;51.198;11.966;2023-01-06T03:59:21;9.00;;;2.15;;
23388;SDS011;11867;51.198;11.966;2023-01-06T04:00:27;3.65;;;2.00;;
23388;SDS011;11867;51.198;11.966;2023-01-06T04:01:32;6.25;;;1.98;;
23388;SDS011;11867;51.198;11.966;2023-01-06T04:02:34;6.18;;;1.73;;
23388;SDS011;11867;51.198;11.966;2023-01-06T04:03:38;4.95;;;2.00;;
23388;SDS011;11867;51.198;11.966;2023-01-06T04:04:58;6.93;;;1.75;;
23388;SDS011;11867;51.198;11.966;2023-01-06T04:06:03;6.70;;;1.90;;
23388;SDS011;11867;51.198;11.966;2023-01-06T04:07:05;8.52;;;2.05;;
23388;SDS011;11867;51.198;11.966;2023-01-06T04:08:07;7.68;;;1.80;;
23388;SDS011;11867;51.198;11.966;2023-01-06T04:09:10;4.70;;;1.40;;
23388;SDS011;11867;51.198;11.966;2023-01-06T04:10:12;5.10;;;1.70;;
23388;SDS011;11867;51.198;11.966;2023-01-06T04:11:17;8.90;;;2.65;;
23388;SDS011;11867;51.198;11.966;2023-01-06T04:12:37;7.65;;;1.80;;
23388;SDS011;11867;51.198;11.966;2023-01-06T04:13:39;5.20;;;1.70;;
23388;SDS011;11867;51.198;11.966;2023-01-06T04:14:42;6.88;;;1.75;;
23388;SDS011;11867;51.198;11.966;2023-01-06T04:15:43;6.07;;;2.03;;
23388;SDS011;11867;51.198;11.966;2023-01-06T04:16:46;5.15;;;1.85;;
23388;SDS011;11867;51.198;11.966;2023-01-06T04:17:47;4.53;;;1.45;;
23388;SDS011;11867;51.198;11.966;2023-01-06T04:18:50;7.60;;;1.65;;
23388;SDS011;11867;51.198;11.966;2023-01-06T04:19:52;5.90;;;1.42;;
23388;SDS011;11867;51.198;11.966;2023-01-06T04:20:55;2.90;;;1.38;;
23388;SDS011;11867;51.198;11.966;2023-01-06T04:21:57;6.00;;;1.50;;
23388;SDS011;11867;51.198;11.966;2023-01-06T04:23:00;3.35;;;1.80;;
23388;SDS011;11867;51.198;11.966;2023-01-06T04:24:01;4.93;;;1.45;;
23388;SDS011;11867;51.198;11.966;2023-01-06T04:25:05;3.13;;;1.30;;
23388;SDS011;11867;51.198;11.966;2023-01-06T04:26:07;6.22;;;1.55;;
23388;SDS011;11867;51.198;11.966;2023-01-06T04:27:09;3.70;;;1.33;;
23388;SDS011;11867;51.198;11.966;2023-01-06T04:28:11;2.60;;;1.30;;
23388;SDS011;11867;51.198;11.966;2023-01-06T04:29:13;4.38;;;1.48;;
23388;SDS011;11867;51.198;11.966;2023-01-06T04:30:15;4.82;;;1.70;;
23388;SDS011;11867;51.198;11.966;2023-01-06T04:31:18;4.07;;;1.42;;
23388;SDS011;11867;51.198;11.966;2023-01-06T04:32:19;3.55;;;1.85;;
23388;SDS011;11867;51.198;11.966;2023-01-06T04:33:22;2.45;;;1.40;;
23388;SDS011;11867;51.198;11.966;2023-01-06T04:34:24;3.95;;;1.30;;
23388;SDS011;11867;51.198;11.966;2023-01-06T04:35:26;4.97;;;1.40;;
23388;SDS011;11867;51.198;11.966;2023-01-06T04:36:28;3.97;;;1.23;;
23388;SDS011;11867;51.198;11.966;2023-01-06T04:37:32;4.57;;;1.73;;
23388;SDS011;11867;51.198;11.966;2023-01-06T04:38:34;4.35;;;1.48;;
23388;SDS011;11867;51.198;11.966;2023-01-06T04:39:37;6.88;;;1.50;;
23388;SDS011;11867;51.198;11.966;2023-01-06T04:40:38;2.03;;;1.30;;
23388;SDS011;11867;51.198;11.966;2023-01-06T04:41:42;5.45;;;1.63;;
23388;SDS011;11867;51.198;11.966;2023-01-06T04:42:44;3.40;;;1.27;;
23388;SDS011;11867;51.198;11.966;2023-01-06T04:44:04;5.00;;;1.67;;
23388;SDS011;11867;51.198;11.966;2023-01-06T04:45:07;2.90;;;1.30;;
23388;SDS011;11867;51.198;11.966;2023-01-06T04:46:09;3.95;;;1.50;;
23388;SDS011;11867;51.198;11.966;2023-01-06T04:47:11;3.08;;;1.20;;
23388;SDS011;11867;51.198;11.966;2023-01-06T04:48:13;3.28;;;1.17;;
23388;SDS011;11867;51.198;11.966;2023-01-06T04:49:15;4.43;;;1.50;;
23388;SDS011;11867;51.198;11.966;2023-01-06T04:50:17;3.08;;;1.33;;
23388;SDS011;11867;51.198;11.966;2023-01-06T04:51:19;2.58;;;1.02;;
23388;SDS011;11867;51.198;11.966;2023-01-06T04:52:21;1.88;;;1.02;;
23388;SDS011;11867;51.198;11.966;2023-01-06T04:53:25;3.28;;;1.27;;
23388;SDS011;11867;51.198;11.966;2023-01-06T04:54:26;3.65;;;1.45;;
23388;SDS011;11867;51.198;11.966;2023-01-06T04:55:29;3.03;;;1.23;;
23388;SDS011;11867;51.198;11.966;2023-01-06T04:56:31;6.55;;;1.67;;
23388;SDS011;11867;51.198;11.966;2023-01-06T04:57:33;3.22;;;1.50;;
23388;SDS011;11867;51.198;11.966;2023-01-06T04:58:35;3.95;;;1.60;;
23388;SDS011;11867;51.198;11.966;2023-01-06T04:59:37;2.83;;;1.50;;
23388;SDS011;11867;51.198;11.966;2023-01-06T05:00:40;2.58;;;1.10;;
23388;SDS011;11867;51.198;11.966;2023-01-06T05:01:41;2.70;;;1.30;;
23388;SDS011;11867;51.198;11.966;2023-01-06T05:02:44;3.58;;;1.40;;
23388;SDS011;11867;51.198;11.966;2023-01-06T05:03:46;2.33;;;1.30;;
23388;SDS011;11867;51.198;11.966;2023-01-06T05:04:49;3.78;;;1.10;;
23388;SDS011;11867;51.198;11.966;2023-01-06T05:05:50;3.13;;;1.40;;
23388;SDS011;11867;51.198;11.966;2023-01-06T05:06:53;2.08;;;1.08;;
23388;SDS011;11867;51.198;11.966;2023-01-06T05:07:54;2.05;;;1.17;;
23388;SDS011;11867;51.198;11.966;2023-01-06T05:08:58;4.68;;;1.38;;
23388;SDS011;11867;51.198;11.966;2023-01-06T05:10:00;2.38;;;0.95;;
23388;SDS011;11867;51.198;11.966;2023-01-06T05:11:03;2.83;;;1.27;;
23388;SDS011;11867;51.198;11.966;2023-01-06T05:12:06;3.58;;;1.13;;
23388;SDS011;11867;51.198;11.966;2023-01-06T05:13:09;2.45;;;1.30;;
23388;SDS011;11867;51.198;11.966;2023-01-06T05:14:10;4.18;;;1.60;;
23388;SDS011;11867;51.198;11.966;2023-01-06T05:15:13;1.48;;;1.05;;
23388;SDS011;11867;51.198;11.966;2023-01-06T05:16:15;3.17;;;1.17;;
23388;SDS011;11867;51.198;11.966;2023-01-06T05:17:22;1.70;;;1.33;;
23388;SDS011;11867;51.198;11.966;2023-01-06T05:18:24;4.95;;;1.95;;
23388;SDS011;11867;51.198;11.966;2023-01-06T05:19:26;3.45;;;1.17;;
23388;SDS011;11867;51.198;11.966;2023-01-06T05:20:28;3.03;;;1.30;;
23388;SDS011;11867;51.198;11.966;2023-01-06T05:21:30;1.85;;;1.10;;
23388;SDS011;11867;51.198;11.966;2023-01-06T05:22:33;1.73;;;1.10;;
23388;SDS011;11867;51.198;11.966;2023-01-06T05:23:34;2.10;;;0.95;;
23388;SDS011;11867;51.198;11.966;2023-01-06T05:24:38;2.22;;;0.90;;
23388;SDS011;11867;51.198;11.966;2023-01-06T05:25:41;1.52;;;0.88;;
23388;SDS011;11867;51.198;11.966;2023-01-06T05:26:42;1.70;;;0.90;;
23388;SDS011;11867;51.198;11.966;2023-01-06T05:27:45;2.30;;;1.15;;
23388;SDS011;11867;51.198;11.966;2023-01-06T05:28:46;2.90;;;1.00;;
23388;SDS011;11867;51.198;11.966;2023-01-06T05:29:49;2.80;;;1.10;;
23388;SDS011;11867;51.198;11.966;2023-01-06T05:30:51;1.27;;;0.80;;
23388;SDS011;11867;51.198;11.966;2023-01-06T05:31:54;2.65;;;1.30;;
23388;SDS011;11867;51.198;11.966;2023-01-06T05:32:55;2.30;;;1.20;;
23388;SDS011;11867;51.198;11.966;2023-01-06T05:33:58;1.65;;;0.90;;
23388;SDS011;11867;51.198;11.966;2023-01-06T05:35:00;1.80;;;0.98;;
23388;SDS011;11867;51.198;11.966;2023-01-06T05:36:02;2.92;;;1.13;;
23388;SDS011;11867;51.198;11.966;2023-01-06T05:37:06;2.08;;;1.10;;
23388;SDS011;11867;51.198;11.966;2023-01-06T05:38:08;3.75;;;1.00;;
23388;SDS011;11867;51.198;11.966;2023-01-06T05:39:10;2.20;;;1.05;;
23388;SDS011;11867;51.198;11.966;2023-01-06T05:40:13;2.72;;;0.98;;
23388;SDS011;11867;51.198;11.966;2023-01-06T05:41:16;2.47;;;1.13;;
23388;SDS011;11867;51.198;11.966;2023-01-06T05:42:17;3.15;;;1.17;;
23388;SDS011;11867;51.198;11.966;2023-01-06T05:43:20;2.70;;;0.90;;
23388;SDS011;11867;51.198;11.966;2023-01-06T05:44:21;3.65;;;0.93;;
23388;SDS011;11867;51.198;11.966;2023-01-06T05:45:24;1.50;;;1.00;;
23388;SDS011;11867;51.198;11.966;2023-01-06T05:46:26;2.97;;;1.20;;
23388;SDS011;11867;51.198;11.966;2023-01-06T05:47:28;2.20;;;1.23;;
23388;SDS011;11867;51.198;11.966;2023-01-06T05:48:30;1.88;;;1.10;;
23388;SDS011;11867;51.198;11.966;2023-01-06T05:49:32;1.08;;;0.98;;
23388;SDS011;11867;51.198;11.966;2023-01-06T05:50:35;1.40;;;0.95;;
23388;SDS011;11867;51.198;11.966;2023-01-06T05:51:36;1.83;;;1.40;;
23388;SDS011;11867;51.198;11.966;2023-01-06T05:52:39;2.42;;;1.10;;
23388;SDS011;11867;51.198;11.966;2023-01-06T05:53:41;2.00;;;0.95;;
23388;SDS011;11867;51.198;11.966;2023-01-06T05:54:45;1.90;;;0.95;;
23388;SDS011;11867;51.198;11.966;2023-01-06T05:55:48;3.75;;;1.35;;
23388;SDS011;11867;51.198;11.966;2023-01-06T05:56:50;3.08;;;1.30;;
23388;SDS011;11867;51.198;11.966;2023-01-06T05:57:52;1.65;;;1.00;;
23388;SDS011;11867;51.198;11.966;2023-01-06T05:58:54;2.22;;;0.77;;
23388;SDS011;11867;51.198;11.966;2023-01-06T05:59:56;2.13;;;0.88;;
23388;SDS011;11867;51.198;11.966;2023-01-06T06:00:59;0.90;;;0.80;;
23388;SDS011;11867;51.198;11.966;2023-01-06T06:02:01;5.88;;;1.08;;
23388;SDS011;11867;51.198;11.966;2023-01-06T06:03:03;2.47;;;1.08;;
23388;SDS011;11867;51.198;11.966;2023-01-06T06:04:05;2.53;;;1.05;;
23388;SDS011;11867;51.198;11.966;2023-01-06T06:05:07;2.08;;;1.17;;
23388;SDS011;11867;51.198;11.966;2023-01-06T06:06:09;2.55;;;1.00;;
23388;SDS011;11867;51.198;11.966;2023-01-06T06:07:12;1.35;;;1.00;;
23388;SDS011;11867;51.198;11.966;2023-01-06T06:08:14;2.08;;;1.13;;
23388;SDS011;11867;51.198;11.966;2023-01-06T06:09:16;4.03;;;1.50;;
23388;SDS011;11867;51.198;11.966;2023-01-06T06:10:19;2.05;;;1.20;;
23388;SDS011;11867;51.198;11.966;2023-01-06T06:11:21;2.50;;;0.88;;
23388;SDS011;11867;51.198;11.966;2023-01-06T06:12:24;2.28;;;1.05;;
23388;SDS011;11867;51.198;11.966;2023-01-06T06:13:25;1.70;;;0.90;;
23388;SDS011;11867;51.198;11.966;2023-01-06T06:14:28;3.15;;;1.15;;
23388;SDS011;11867;51.198;11.966;2023-01-06T06:15:30;1.52;;;0.90;;
23388;SDS011;11867;51.198;11.966;2023-01-06T06:16:33;3.10;;;1.08;;
23388;SDS011;11867;51.198;11.966;2023-01-06T06:17:35;1.13;;;0.90;;
23388;SDS011;11867;51.198;11.966;2023-01-06T06:18:38;1.55;;;0.80;;
23388;SDS011;11867;51.198;11.966;2023-01-06T06:19:43;2.55;;;0.90;;
23388;SDS011;11867;51.198;11.966;2023-01-06T06:20:45;1.70;;;1.05;;
23388;SDS011;11867;51.198;11.966;2023-01-06T06:21:46;0.88;;;0.80;;
23388;SDS011;11867;51.198;11.966;2023-01-06T06:22:49;2.10;;;0.70;;
23388;SDS011;11867;51.198;11.966;2023-01-06T06:23:51;1.45;;;0.70;;
23388;SDS011;11867;51.198;11.966;2023-01-06T06:24:53;1.83;;;0.90;;
23388;SDS011;11867;51.198;11.966;2023-01-06T06:25:56;1.33;;;0.82;;
23388;SDS011;11867;51.198;11.966;2023-01-06T06:26:59;2.05;;;0.98;;
23388;SDS011;11867;51.198;11.966;2023-01-06T06:28:02;1.30;;;0.90;;
23388;SDS011;11867;51.198;11.966;2023-01-06T06:29:04;2.00;;;1.02;;
23388;SDS011;11867;51.198;11.966;2023-01-06T06:30:07;3.45;;;1.00;;